sensor_id;sensor_type;location;lat;lon;timestamp;P1;durP1;ratioP1;P2;durP2;ratioP2
9384;SDS011;4732;49.340;10.886;2023-02-22T04:00:32;5.23;;;4.73;;
9384;SDS011;4732;49.340;10.886;2023-02-22T04:02:58;4.97;;;4.20;;
9384;SDS011;4732;49.340;10.886;2023-02-22T04:05:25;5.70;;;4.50;;
9384;SDS011;4732;49.340;10.886;2023-02-22T04:07:51;6.43;;;5.07;;
9384;SDS011;4732;49.340;10.886;2023-02-22T04:10:17;5.63;;;4.50;;
9384;SDS011;4732;49.340;10.886;2023-02-22T04:12:43;6.17;;;5.03;;
9384;SDS011;4732;49.340;10.886;2023-02-22T04:15:11;5.53;;;4.83;;
9384;SDS011;4732;49.340;10.886;2023-02-22T04:17:40;5.37;;;4.80;;
9384;SDS011;4732;49.340;10.886;2023-02-22T04:20:05;4.87;;;4.37;;
9384;SDS011;4732;49.340;10.886;2023-02-22T04:22:31;5.27;;;4.40;;
9384;SDS011;4732;49.340;10.886;2023-02-22T04:24:57;4.97;;;4.47;;
9384;SDS011;4732;49.340;10.886;2023-02-22T04:27:22;5.10;;;4.57;;
9384;SDS011;4732;49.340;10.886;2023-02-22T04:29:48;5.20;;;4.50;;
9384;SDS011;4732;49.340;10.886;2023-02-22T04:32:14;5.00;;;4.40;;
9384;SDS011;4732;49.340;10.886;2023-02-22T04:34:40;5.30;;;4.63;;
9384;SDS011;4732;49.340;10.886;2023-02-22T04:37:05;6.53;;;5.53;;
9384;SDS011;4732;49.340;10.886;2023-02-22T04:39:31;5.60;;;5.00;;
9384;SDS011;4732;49.340;10.886;2023-02-22T04:41:57;6.37;;;5.50;;
9384;SDS011;4732;49.340;10.886;2023-02-22T04:44:22;6.33;;;5.43;;
9384;SDS011;4732;49.340;10.886;2023-02-22T04:46:48;6.50;;;4.70;;
9384;SDS011;4732;49.340;10.886;2023-02-22T04:49:13;5.63;;;5.03;;
9384;SDS011;4732;49.340;10.886;2023-02-22T04:51:39;6.60;;;5.67;;
9384;SDS011;4732;49.340;10.886;2023-02-22T04:54:06;5.80;;;5.00;;
9384;SDS011;4732;49.340;10.886;2023-02-22T04:56:32;6.93;;;5.37;;
9384;SDS011;4732;49.340;10.886;2023-02-22T04:58:57;6.80;;;6.10;;
9384;SDS011;4732;49.340;10.886;2023-02-22T05:01:23;6.40;;;5.50;;
9384;SDS011;4732;49.340;10.886;2023-02-22T05:03:48;5.73;;;5.07;;
9384;SDS011;4732;49.340;10.886;2023-02-22T05:06:15;20.43;;;7.40;;
9384;SDS011;4732;49.340;10.886;2023-02-22T05:08:42;6.60;;;5.03;;
9384;SDS011;4732;49.340;10.886;2023-02-22T05:11:07;9.43;;;5.70;;
9384;SDS011;4732;49.340;10.886;2023-02-22T05:13:33;11.30;;;6.07;;
9384;SDS011;4732;49.340;10.886;2023-02-22T05:15:59;9.63;;;6.10;;
9384;SDS011;4732;49.340;10.886;2023-02-22T05:18:25;8.53;;;6.20;;
9384;SDS011;4732;49.340;10.886;2023-02-22T05:20:50;8.73;;;5.77;;
9384;SDS011;4732;49.340;10.886;2023-02-22T05:23:16;6.47;;;5.30;;
9384;SDS011;4732;49.340;10.886;2023-02-22T05:25:42;7.23;;;5.60;;
9384;SDS011;4732;49.340;10.886;2023-02-22T05:28:09;8.60;;;5.53;;
9384;SDS011;4732;49.340;10.886;2023-02-22T05:30:36;6.83;;;6.00;;
9384;SDS011;4732;49.340;10.886;2023-02-22T05:33:05;10.07;;;6.47;;
9384;SDS011;4732;49.340;10.886;2023-02-22T05:35:31;11.87;;;7.27;;
9384;SDS011;4732;49.340;10.886;2023-02-22T05:37:57;9.60;;;6.77;;
9384;SDS011;4732;49.340;10.886;2023-02-22T05:40:25;18.33;;;8.50;;
9384;SDS011;4732;49.340;10.886;2023-02-22T05:42:52;9.27;;;6.50;;
9384;SDS011;4732;49.340;10.886;2023-02-22T05:45:19;10.50;;;6.67;;
9384;SDS011;4732;49.340;10.886;2023-02-22T05:47:47;6.70;;;5.50;;
9384;SDS011;4732;49.340;10.886;2023-02-22T05:50:13;7.47;;;6.00;;
9384;SDS011;4732;49.340;10.886;2023-02-22T05:52:39;8.13;;;6.43;;
9384;SDS011;4732;49.340;10.886;2023-02-22T05:55:05;9.03;;;6.53;;
9384;SDS011;4732;49.340;10.886;2023-02-22T05:57:31;10.10;;;7.00;;
9384;SDS011;4732;49.340;10.886;2023-02-22T05:59:57;8.83;;;6.40;;
9384;SDS011;4732;49.340;10.886;2023-02-22T06:02:22;12.50;;;7.07;;
9384;SDS011;4732;49.340;10.886;2023-02-22T06:04:48;8.03;;;6.37;;
9384;SDS011;4732;49.340;10.886;2023-02-22T06:07:13;10.70;;;6.57;;
9384;SDS011;4732;49.340;10.886;2023-02-22T06:09:39;17.73;;;5.90;;
9384;SDS011;4732;49.340;10.886;2023-02-22T06:12:05;7.27;;;4.63;;
9384;SDS011;4732;49.340;10.886;2023-02-22T06:14:32;7.37;;;5.33;;
9384;SDS011;4732;49.340;10.886;2023-02-22T06:16:57;14.00;;;6.90;;
9384;SDS011;4732;49.340;10.886;2023-02-22T06:19:23;7.97;;;5.40;;
9384;SDS011;4732;49.340;10.886;2023-02-22T06:21:52;9.70;;;6.00;;
9384;SDS011;4732;49.340;10.886;2023-02-22T06:24:20;11.17;;;6.27;;
9384;SDS011;4732;49.340;10.886;2023-02-22T06:26:46;9.13;;;6.77;;
9384;SDS011;4732;49.340;10.886;2023-02-22T06:29:18;8.83;;;6.90;;
9384;SDS011;4732;49.340;10.886;2023-02-22T06:31:43;8.60;;;6.20;;
9384;SDS011;4732;49.340;10.886;2023-02-22T06:34:09;8.60;;;6.20;;
9384;SDS011;4732;49.340;10.886;2023-02-22T06:36:35;8.87;;;6.30;;
9384;SDS011;4732;49.340;10.886;2023-02-22T06:39:00;9.53;;;6.30;;
9384;SDS011;4732;49.340;10.886;2023-02-22T06:41:26;8.00;;;6.67;;
9384;SDS011;4732;49.340;10.886;2023-02-22T06:43:52;9.43;;;6.27;;
9384;SDS011;4732;49.340;10.886;2023-02-22T06:46:17;9.00;;;6.77;;
9384;SDS011;4732;49.340;10.886;2023-02-22T06:48:45;13.37;;;7.00;;
9384;SDS011;4732;49.340;10.886;2023-02-22T06:51:10;10.57;;;6.47;;
9384;SDS011;4732;49.340;10.886;2023-02-22T06:53:36;8.93;;;6.67;;
9384;SDS011;4732;49.340;10.886;2023-02-22T06:56:01;13.00;;;8.40;;
9384;SDS011;4732;49.340;10.886;2023-02-22T06:58:27;15.87;;;9.20;;
9384;SDS011;4732;49.340;10.886;2023-02-22T07:00:53;15.23;;;9.83;;
9384;SDS011;4732;49.340;10.886;2023-02-22T07:03:19;12.30;;;8.73;;
9384;SDS011;4732;49.340;10.886;2023-02-22T07:05:45;15.47;;;11.17;;
9384;SDS011;4732;49.340;10.886;2023-02-22T07:08:11;21.53;;;11.53;;
9384;SDS011;4732;49.340;10.886;2023-02-22T07:10:37;15.10;;;10.73;;
9384;SDS011;4732;49.340;10.886;2023-02-22T07:13:04;14.77;;;10.47;;
9384;SDS011;4732;49.340;10.886;2023-02-22T07:15:32;16.27;;;10.03;;
9384;SDS011;4732;49.340;10.886;2023-02-22T07:17:59;17.97;;;10.70;;
9384;SDS011;4732;49.340;10.886;2023-02-22T07:20:26;15.57;;;10.07;;
9384;SDS011;4732;49.340;10.886;2023-02-22T07:22:52;12.87;;;9.27;;
9384;SDS011;4732;49.340;10.886;2023-02-22T07:25:18;9.83;;;7.47;;
9384;SDS011;4732;49.340;10.886;2023-02-22T07:27:45;10.13;;;8.10;;
9384;SDS011;4732;49.340;10.886;2023-02-22T07:30:44;12.73;;;7.87;;
9384;SDS011;4732;49.340;10.886;2023-02-22T07:33:03;11.03;;;8.50;;
9384;SDS011;4732;49.340;10.886;2023-02-22T07:35:32;11.47;;;8.87;;
9384;SDS011;4732;49.340;10.886;2023-02-22T07:38:02;13.57;;;9.77;;
9384;SDS011;4732;49.340;10.886;2023-02-22T07:40:31;12.93;;;9.57;;
9384;SDS011;4732;49.340;10.886;2023-02-22T07:43:02;11.83;;;8.97;;
9384;SDS011;4732;49.340;10.886;2023-02-22T07:45:30;11.37;;;8.97;;
9384;SDS011;4732;49.340;10.886;2023-02-22T07:47:57;11.43;;;8.90;;
9384;SDS011;4732;49.340;10.886;2023-02-22T07:50:24;10.27;;;8.63;;
9384;SDS011;4732;49.340;10.886;2023-02-22T07:52:52;11.47;;;8.30;;
9384;SDS011;4732;49.340;10.886;2023-02-22T07:55:20;10.67;;;8.23;;
9384;SDS011;4732;49.340;10.886;2023-02-22T07:57:48;11.13;;;8.77;;
9384;SDS011;4732;49.340;10.886;2023-02-22T08:00:15;10.23;;;8.10;;
9384;SDS011;4732;49.340;10.886;2023-02-22T08:02:47;11.53;;;8.87;;
9384;SDS011;4732;49.340;10.886;2023-02-22T08:05:12;19.43;;;13.47;;
9384;SDS011;4732;49.340;10.886;2023-02-22T08:07:39;22.27;;;16.63;;
9384;SDS011;4732;49.340;10.886;2023-02-22T08:10:05;15.10;;;10.57;;
9384;SDS011;4732;49.340;10.886;2023-02-22T08:12:35;14.77;;;10.80;;
9384;SDS011;4732;49.340;10.886;2023-02-22T08:15:02;13.10;;;10.53;;
9384;SDS011;4732;49.340;10.886;2023-02-22T08:17:29;14.57;;;10.60;;
9384;SDS011;4732;49.340;10.886;2023-02-22T08:19:54;11.73;;;9.60;;
9384;SDS011;4732;49.340;10.886;2023-02-22T08:22:20;12.57;;;10.53;;
9384;SDS011;4732;49.340;10.886;2023-02-22T08:24:46;11.47;;;9.53;;
9384;SDS011;4732;49.340;10.886;2023-02-22T08:27:11;13.17;;;10.73;;
9384;SDS011;4732;49.340;10.886;2023-02-22T08:29:37;12.70;;;10.80;;
9384;SDS011;4732;49.340;10.886;2023-02-22T08:32:02;13.47;;;11.40;;
9384;SDS011;4732;49.340;10.886;2023-02-22T08:34:28;17.47;;;12.73;;
9384;SDS011;4732;49.340;10.886;2023-02-22T08:36:54;14.87;;;12.60;;
9384;SDS011;4732;49.340;10.886;2023-02-22T08:39:20;18.03;;;13.57;;
9384;SDS011;4732;49.340;10.886;2023-02-22T08:41:45;16.20;;;13.50;;
9384;SDS011;4732;49.340;10.886;2023-02-22T08:44:11;17.07;;;14.33;;
9384;SDS011;4732;49.340;10.886;2023-02-22T08:46:36;16.53;;;13.10;;
9384;SDS011;4732;49.340;10.886;2023-02-22T08:49:03;16.13;;;12.03;;
9384;SDS011;4732;49.340;10.886;2023-02-22T08:51:29;14.47;;;11.13;;
9384;SDS011;4732;49.340;10.886;2023-02-22T08:53:59;16.77;;;13.97;;
9384;SDS011;4732;49.340;10.886;2023-02-22T08:56:24;15.10;;;12.30;;
9384;SDS011;4732;49.340;10.886;2023-02-22T08:58:50;14.30;;;12.80;;
9384;SDS011;4732;49.340;10.886;2023-02-22T09:01:15;15.93;;;12.40;;
9384;SDS011;4732;49.340;10.886;2023-02-22T09:03:41;15.60;;;12.93;;
9384;SDS011;4732;49.340;10.886;2023-02-22T09:06:06;18.83;;;14.87;;
9384;SDS011;4732;49.340;10.886;2023-02-22T09:08:32;21.73;;;13.87;;
9384;SDS011;4732;49.340;10.886;2023-02-22T09:10:57;20.03;;;14.67;;
9384;SDS011;4732;49.340;10.886;2023-02-22T09:13:23;19.13;;;15.07;;
9384;SDS011;4732;49.340;10.886;2023-02-22T09:15:48;19.47;;;14.77;;
9384;SDS011;4732;49.340;10.886;2023-02-22T09:18:14;18.80;;;14.27;;
9384;SDS011;4732;49.340;10.886;2023-02-22T09:20:41;21.17;;;14.47;;
9384;SDS011;4732;49.340;10.886;2023-02-22T09:23:08;17.27;;;13.77;;
9384;SDS011;4732;49.340;10.886;2023-02-22T09:25:34;20.57;;;15.83;;
9384;SDS011;4732;49.340;10.886;2023-02-22T09:28:00;19.00;;;14.87;;
9384;SDS011;4732;49.340;10.886;2023-02-22T09:30:29;18.07;;;15.23;;
9384;SDS011;4732;49.340;10.886;2023-02-22T09:32:58;17.17;;;13.97;;
9384;SDS011;4732;49.340;10.886;2023-02-22T09:35:25;20.73;;;15.10;;
9384;SDS011;4732;49.340;10.886;2023-02-22T09:37:57;17.00;;;13.03;;
9384;SDS011;4732;49.340;10.886;2023-02-22T09:40:31;17.13;;;13.53;;
9384;SDS011;4732;49.340;10.886;2023-02-22T09:43:03;17.37;;;13.37;;
9384;SDS011;4732;49.340;10.886;2023-02-22T09:48:35;15.27;;;12.17;;
9384;SDS011;4732;49.340;10.886;2023-02-22T09:51:12;15.20;;;12.40;;
9384;SDS011;4732;49.340;10.886;2023-02-22T09:53:43;16.57;;;12.23;;
9384;SDS011;4732;49.340;10.886;2023-02-22T09:56:13;17.50;;;11.80;;
9384;SDS011;4732;49.340;10.886;2023-02-22T09:58:43;15.30;;;12.43;;
9384;SDS011;4732;49.340;10.886;2023-02-22T10:06:54;14.13;;;10.43;;
9384;SDS011;4732;49.340;10.886;2023-02-22T10:09:30;13.10;;;10.37;;
9384;SDS011;4732;49.340;10.886;2023-02-22T10:12:04;13.43;;;11.23;;
9384;SDS011;4732;49.340;10.886;2023-02-22T10:25:21;11.30;;;9.40;;
9384;SDS011;4732;49.340;10.886;2023-02-22T10:28:00;11.60;;;8.90;;
9384;SDS011;4732;49.340;10.886;2023-02-22T10:30:29;11.53;;;8.50;;
9384;SDS011;4732;49.340;10.886;2023-02-22T10:33:29;10.90;;;8.50;;
9384;SDS011;4732;49.340;10.886;2023-02-22T10:36:00;11.57;;;8.07;;
9384;SDS011;4732;49.340;10.886;2023-02-22T10:38:33;10.20;;;8.05;;
9384;SDS011;4732;49.340;10.886;2023-02-22T10:41:01;9.63;;;7.85;;
9384;SDS011;4732;49.340;10.886;2023-02-22T10:43:39;11.48;;;7.95;;
9384;SDS011;4732;49.340;10.886;2023-02-22T10:46:07;11.02;;;8.40;;
9384;SDS011;4732;49.340;10.886;2023-02-22T10:48:38;8.30;;;6.95;;
9384;SDS011;4732;49.340;10.886;2023-02-22T10:51:07;8.55;;;7.65;;
9384;SDS011;4732;49.340;10.886;2023-02-22T10:53:34;9.38;;;7.45;;
9384;SDS011;4732;49.340;10.886;2023-02-22T10:56:25;9.10;;;7.95;;
9384;SDS011;4732;49.340;10.886;2023-02-22T10:58:57;8.82;;;7.88;;
9384;SDS011;4732;49.340;10.886;2023-02-22T11:04:02;8.07;;;6.75;;
9384;SDS011;4732;49.340;10.886;2023-02-22T11:06:35;12.18;;;8.93;;
9384;SDS011;4732;49.340;10.886;2023-02-22T11:11:37;9.10;;;6.70;;
9384;SDS011;4732;49.340;10.886;2023-02-22T11:14:05;8.80;;;5.90;;
9384;SDS011;4732;49.340;10.886;2023-02-22T11:16:38;7.05;;;6.00;;
9384;SDS011;4732;49.340;10.886;2023-02-22T11:19:20;6.75;;;5.38;;
9384;SDS011;4732;49.340;10.886;2023-02-22T11:21:48;6.95;;;5.05;;
9384;SDS011;4732;49.340;10.886;2023-02-22T11:24:17;6.95;;;5.30;;
9384;SDS011;4732;49.340;10.886;2023-02-22T11:26:52;7.18;;;4.88;;
9384;SDS011;4732;49.340;10.886;2023-02-22T11:29:25;5.28;;;4.78;;
9384;SDS011;4732;49.340;10.886;2023-02-22T11:32:02;8.32;;;4.72;;
9384;SDS011;4732;49.340;10.886;2023-02-22T11:34:44;6.00;;;4.70;;
9384;SDS011;4732;49.340;10.886;2023-02-22T11:37:32;5.97;;;4.85;;
9384;SDS011;4732;49.340;10.886;2023-02-22T11:42:45;4.80;;;4.30;;
9384;SDS011;4732;49.340;10.886;2023-02-22T11:45:19;6.78;;;4.72;;
9384;SDS011;4732;49.340;10.886;2023-02-22T11:47:58;5.90;;;4.40;;
9384;SDS011;4732;49.340;10.886;2023-02-22T11:58:25;6.00;;;4.90;;
9384;SDS011;4732;49.340;10.886;2023-02-22T12:01:14;6.50;;;4.60;;
9384;SDS011;4732;49.340;10.886;2023-02-22T12:04:03;6.00;;;4.65;;
9384;SDS011;4732;49.340;10.886;2023-02-22T12:09:38;5.53;;;4.32;;
9384;SDS011;4732;49.340;10.886;2023-02-22T12:12:34;5.40;;;4.25;;
9384;SDS011;4732;49.340;10.886;2023-02-22T12:15:18;6.80;;;4.43;;
9384;SDS011;4732;49.340;10.886;2023-02-22T12:20:42;5.63;;;4.60;;
9384;SDS011;4732;49.340;10.886;2023-02-22T12:25:54;5.15;;;4.35;;
9384;SDS011;4732;49.340;10.886;2023-02-22T12:28:46;4.68;;;4.00;;
9384;SDS011;4732;49.340;10.886;2023-02-22T12:33:54;5.70;;;4.43;;
9384;SDS011;4732;49.340;10.886;2023-02-22T12:36:42;5.07;;;3.55;;
9384;SDS011;4732;49.340;10.886;2023-02-22T12:39:23;5.47;;;3.90;;
9384;SDS011;4732;49.340;10.886;2023-02-22T12:41:56;5.03;;;3.83;;
9384;SDS011;4732;49.340;10.886;2023-02-22T12:44:36;4.95;;;4.00;;
9384;SDS011;4732;49.340;10.886;2023-02-22T12:47:04;7.38;;;3.80;;
9384;SDS011;4732;49.340;10.886;2023-02-22T12:52:06;4.10;;;3.65;;
9384;SDS011;4732;49.340;10.886;2023-02-22T12:54:47;6.20;;;3.72;;
9384;SDS011;4732;49.340;10.886;2023-02-22T12:57:39;5.30;;;3.90;;
9384;SDS011;4732;49.340;10.886;2023-02-22T13:00:26;4.40;;;4.00;;
9384;SDS011;4732;49.340;10.886;2023-02-22T13:05:37;6.28;;;4.65;;
9384;SDS011;4732;49.340;10.886;2023-02-22T13:11:03;5.80;;;3.72;;
9384;SDS011;4732;49.340;10.886;2023-02-22T13:19:35;5.50;;;4.22;;
9384;SDS011;4732;49.340;10.886;2023-02-22T13:22:06;6.32;;;3.80;;
9384;SDS011;4732;49.340;10.886;2023-02-22T13:24:42;3.90;;;3.53;;
9384;SDS011;4732;49.340;10.886;2023-02-22T13:27:24;5.28;;;4.10;;
9384;SDS011;4732;49.340;10.886;2023-02-22T13:29:57;5.25;;;3.63;;
9384;SDS011;4732;49.340;10.886;2023-02-22T13:35:15;5.45;;;3.10;;
9384;SDS011;4732;49.340;10.886;2023-02-22T13:43:18;3.85;;;2.88;;
9384;SDS011;4732;49.340;10.886;2023-02-22T13:51:59;4.60;;;3.00;;
9384;SDS011;4732;49.340;10.886;2023-02-22T13:54:36;3.80;;;3.10;;
9384;SDS011;4732;49.340;10.886;2023-02-22T13:57:17;3.83;;;3.03;;
9384;SDS011;4732;49.340;10.886;2023-02-22T14:00:17;4.32;;;3.22;;
9384;SDS011;4732;49.340;10.886;2023-02-22T14:08:37;4.75;;;2.50;;
9384;SDS011;4732;49.340;10.886;2023-02-22T14:13:24;2.60;;;2.20;;
9384;SDS011;4732;49.340;10.886;2023-02-22T14:18:26;5.10;;;2.60;;
9384;SDS011;4732;49.340;10.886;2023-02-22T14:21:07;3.05;;;2.65;;
9384;SDS011;4732;49.340;10.886;2023-02-22T14:23:52;3.08;;;2.05;;
9384;SDS011;4732;49.340;10.886;2023-02-22T14:26:27;2.53;;;2.20;;
9384;SDS011;4732;49.340;10.886;2023-02-22T14:28:55;3.00;;;2.20;;
9384;SDS011;4732;49.340;10.886;2023-02-22T14:31:32;3.08;;;2.05;;
9384;SDS011;4732;49.340;10.886;2023-02-22T14:34:08;2.95;;;2.00;;
9384;SDS011;4732;49.340;10.886;2023-02-22T14:39:43;1.88;;;1.70;;
9384;SDS011;4732;49.340;10.886;2023-02-22T14:47:55;2.88;;;1.88;;
9384;SDS011;4732;49.340;10.886;2023-02-22T14:53:05;5.00;;;3.08;;
9384;SDS011;4732;49.340;10.886;2023-02-22T14:55:42;3.55;;;3.00;;
9384;SDS011;4732;49.340;10.886;2023-02-22T14:58:14;3.67;;;2.70;;
9384;SDS011;4732;49.340;10.886;2023-02-22T15:00:45;3.35;;;2.40;;
9384;SDS011;4732;49.340;10.886;2023-02-22T15:06:06;3.20;;;2.50;;
9384;SDS011;4732;49.340;10.886;2023-02-22T15:08:39;2.97;;;2.53;;
9384;SDS011;4732;49.340;10.886;2023-02-22T15:11:10;4.20;;;2.47;;
9384;SDS011;4732;49.340;10.886;2023-02-22T15:13:48;2.25;;;1.77;;
9384;SDS011;4732;49.340;10.886;2023-02-22T15:16:15;2.75;;;1.75;;
9384;SDS011;4732;49.340;10.886;2023-02-22T15:18:42;3.92;;;1.88;;
9384;SDS011;4732;49.340;10.886;2023-02-22T15:21:14;3.15;;;1.88;;
9384;SDS011;4732;49.340;10.886;2023-02-22T15:23:44;4.57;;;2.22;;
9384;SDS011;4732;49.340;10.886;2023-02-22T15:26:18;3.60;;;2.22;;
9384;SDS011;4732;49.340;10.886;2023-02-22T15:29:06;4.68;;;2.28;;
9384;SDS011;4732;49.340;10.886;2023-02-22T15:31:44;3.95;;;2.28;;
9384;SDS011;4732;49.340;10.886;2023-02-22T15:36:42;4.40;;;2.75;;
9384;SDS011;4732;49.340;10.886;2023-02-22T15:39:21;3.65;;;2.58;;
9384;SDS011;4732;49.340;10.886;2023-02-22T15:44:26;4.03;;;2.80;;
9384;SDS011;4732;49.340;10.886;2023-02-22T15:46:52;4.68;;;3.25;;
9384;SDS011;4732;49.340;10.886;2023-02-22T15:49:20;3.15;;;2.50;;
9384;SDS011;4732;49.340;10.886;2023-02-22T15:51:49;5.85;;;3.38;;
9384;SDS011;4732;49.340;10.886;2023-02-22T15:54:26;5.25;;;4.18;;
9384;SDS011;4732;49.340;10.886;2023-02-22T15:56:52;6.05;;;4.10;;
9384;SDS011;4732;49.340;10.886;2023-02-22T15:59:20;5.10;;;3.90;;
9384;SDS011;4732;49.340;10.886;2023-02-22T16:01:53;6.70;;;5.00;;
9384;SDS011;4732;49.340;10.886;2023-02-22T16:04:21;5.53;;;4.20;;
9384;SDS011;4732;49.340;10.886;2023-02-22T16:06:48;5.35;;;3.78;;
9384;SDS011;4732;49.340;10.886;2023-02-22T16:09:20;5.38;;;3.88;;
9384;SDS011;4732;49.340;10.886;2023-02-22T16:12:38;8.00;;;4.07;;
9384;SDS011;4732;49.340;10.886;2023-02-22T16:14:44;4.75;;;3.60;;
9384;SDS011;4732;49.340;10.886;2023-02-22T16:20:27;3.88;;;3.00;;
9384;SDS011;4732;49.340;10.886;2023-02-22T16:22:48;2.92;;;2.47;;
9384;SDS011;4732;49.340;10.886;2023-02-22T16:32:43;2.70;;;2.10;;
9384;SDS011;4732;49.340;10.886;2023-02-22T16:35:09;2.58;;;2.10;;
9384;SDS011;4732;49.340;10.886;2023-02-22T16:37:48;3.28;;;1.98;;
9384;SDS011;4732;49.340;10.886;2023-02-22T16:40:22;1.85;;;1.67;;
9384;SDS011;4732;49.340;10.886;2023-02-22T16:42:50;2.60;;;2.20;;
9384;SDS011;4732;49.340;10.886;2023-02-22T16:45:16;3.60;;;1.90;;
9384;SDS011;4732;49.340;10.886;2023-02-22T16:47:43;2.75;;;1.83;;
9384;SDS011;4732;49.340;10.886;2023-02-22T16:50:09;3.00;;;2.05;;
9384;SDS011;4732;49.340;10.886;2023-02-22T16:52:35;2.45;;;1.80;;
9384;SDS011;4732;49.340;10.886;2023-02-22T16:55:03;2.78;;;1.77;;
9384;SDS011;4732;49.340;10.886;2023-02-22T16:57:30;3.53;;;1.75;;
9384;SDS011;4732;49.340;10.886;2023-02-22T16:59:56;2.60;;;2.30;;
9384;SDS011;4732;49.340;10.886;2023-02-22T17:02:22;2.67;;;2.10;;
9384;SDS011;4732;49.340;10.886;2023-02-22T17:04:47;4.53;;;2.13;;
9384;SDS011;4732;49.340;10.886;2023-02-22T17:07:20;2.47;;;2.28;;
9384;SDS011;4732;49.340;10.886;2023-02-22T17:09:53;7.75;;;4.35;;
9384;SDS011;4732;49.340;10.886;2023-02-22T17:12:22;7.55;;;4.10;;
9384;SDS011;4732;49.340;10.886;2023-02-22T17:14:48;2.28;;;1.98;;
9384;SDS011;4732;49.340;10.886;2023-02-22T17:17:14;2.50;;;1.38;;
9384;SDS011;4732;49.340;10.886;2023-02-22T17:19:40;1.98;;;1.50;;
9384;SDS011;4732;49.340;10.886;2023-02-22T17:22:05;2.60;;;1.70;;
9384;SDS011;4732;49.340;10.886;2023-02-22T17:24:33;2.38;;;1.90;;
9384;SDS011;4732;49.340;10.886;2023-02-22T17:26:59;3.05;;;1.83;;
9384;SDS011;4732;49.340;10.886;2023-02-22T17:29:26;3.17;;;2.60;;
9384;SDS011;4732;49.340;10.886;2023-02-22T17:31:52;2.67;;;2.38;;
9384;SDS011;4732;49.340;10.886;2023-02-22T17:34:18;2.47;;;2.20;;
9384;SDS011;4732;49.340;10.886;2023-02-22T17:36:43;2.75;;;2.53;;
9384;SDS011;4732;49.340;10.886;2023-02-22T17:39:09;2.45;;;2.22;;
9384;SDS011;4732;49.340;10.886;2023-02-22T17:41:35;2.95;;;2.50;;
9384;SDS011;4732;49.340;10.886;2023-02-22T17:44:01;3.28;;;2.00;;
9384;SDS011;4732;49.340;10.886;2023-02-22T17:46:26;1.98;;;1.88;;
9384;SDS011;4732;49.340;10.886;2023-02-22T17:48:52;3.15;;;2.00;;
9384;SDS011;4732;49.340;10.886;2023-02-22T17:51:18;1.85;;;1.70;;
9384;SDS011;4732;49.340;10.886;2023-02-22T17:53:44;3.97;;;2.88;;
9384;SDS011;4732;49.340;10.886;2023-02-22T17:56:12;3.35;;;2.28;;
9384;SDS011;4732;49.340;10.886;2023-02-22T17:58:42;2.97;;;2.67;;
9384;SDS011;4732;49.340;10.886;2023-02-22T18:01:23;2.83;;;2.58;;
9384;SDS011;4732;49.340;10.886;2023-02-22T18:03:56;3.50;;;2.80;;
9384;SDS011;4732;49.340;10.886;2023-02-22T18:06:24;2.75;;;2.50;;
9384;SDS011;4732;49.340;10.886;2023-02-22T18:08:52;2.60;;;2.38;;
9384;SDS011;4732;49.340;10.886;2023-02-22T18:11:19;2.38;;;2.17;;
9384;SDS011;4732;49.340;10.886;2023-02-22T18:13:50;2.55;;;2.33;;
9384;SDS011;4732;49.340;10.886;2023-02-22T18:16:24;2.33;;;1.80;;
9384;SDS011;4732;49.340;10.886;2023-02-22T18:18:50;2.47;;;2.03;;
9384;SDS011;4732;49.340;10.886;2023-02-22T18:21:16;3.10;;;1.95;;
9384;SDS011;4732;49.340;10.886;2023-02-22T18:23:41;3.90;;;2.90;;
9384;SDS011;4732;49.340;10.886;2023-02-22T18:26:08;3.08;;;2.17;;
9384;SDS011;4732;49.340;10.886;2023-02-22T18:28:41;4.15;;;3.75;;
9384;SDS011;4732;49.340;10.886;2023-02-22T18:31:12;4.97;;;4.38;;
9384;SDS011;4732;49.340;10.886;2023-02-22T18:33:39;5.07;;;4.10;;
9384;SDS011;4732;49.340;10.886;2023-02-22T18:36:06;4.65;;;3.50;;
9384;SDS011;4732;49.340;10.886;2023-02-22T18:38:35;5.47;;;4.10;;
9384;SDS011;4732;49.340;10.886;2023-02-22T18:41:08;3.08;;;2.78;;
9384;SDS011;4732;49.340;10.886;2023-02-22T18:43:35;3.03;;;2.70;;
9384;SDS011;4732;49.340;10.886;2023-02-22T18:46:09;2.90;;;2.70;;
9384;SDS011;4732;49.340;10.886;2023-02-22T18:48:36;3.28;;;2.88;;
9384;SDS011;4732;49.340;10.886;2023-02-22T18:51:03;3.65;;;2.80;;
9384;SDS011;4732;49.340;10.886;2023-02-22T18:53:30;3.38;;;3.08;;
9384;SDS011;4732;49.340;10.886;2023-02-22T18:56:01;4.55;;;3.75;;
9384;SDS011;4732;49.340;10.886;2023-02-22T18:58:31;4.45;;;3.78;;
9384;SDS011;4732;49.340;10.886;2023-02-22T19:00:57;4.00;;;3.33;;
9384;SDS011;4732;49.340;10.886;2023-02-22T19:03:27;3.58;;;3.22;;
9384;SDS011;4732;49.340;10.886;2023-02-22T19:05:53;3.83;;;3.28;;
9384;SDS011;4732;49.340;10.886;2023-02-22T19:08:20;3.72;;;3.30;;
9384;SDS011;4732;49.340;10.886;2023-02-22T19:10:46;3.45;;;3.15;;
9384;SDS011;4732;49.340;10.886;2023-02-22T19:13:13;3.42;;;3.10;;
9384;SDS011;4732;49.340;10.886;2023-02-22T19:15:40;3.42;;;2.95;;
9384;SDS011;4732;49.340;10.886;2023-02-22T19:18:06;4.10;;;3.10;;
9384;SDS011;4732;49.340;10.886;2023-02-22T19:20:32;3.63;;;3.15;;
9384;SDS011;4732;49.340;10.886;2023-02-22T19:22:58;3.15;;;2.85;;
9384;SDS011;4732;49.340;10.886;2023-02-22T19:25:24;3.97;;;2.70;;
9384;SDS011;4732;49.340;10.886;2023-02-22T19:27:49;3.13;;;2.83;;
9384;SDS011;4732;49.340;10.886;2023-02-22T19:30:15;3.28;;;2.75;;
9384;SDS011;4732;49.340;10.886;2023-02-22T19:32:41;4.50;;;2.88;;
9384;SDS011;4732;49.340;10.886;2023-02-22T19:35:11;3.70;;;2.60;;
9384;SDS011;4732;49.340;10.886;2023-02-22T19:37:53;4.97;;;2.40;;
9384;SDS011;4732;49.340;10.886;2023-02-22T19:40:22;3.60;;;2.73;;
9384;SDS011;4732;49.340;10.886;2023-02-22T19:42:49;4.47;;;2.73;;
9384;SDS011;4732;49.340;10.886;2023-02-22T19:45:16;4.50;;;2.87;;
9384;SDS011;4732;49.340;10.886;2023-02-22T19:47:43;4.10;;;2.53;;
9384;SDS011;4732;49.340;10.886;2023-02-22T19:50:10;4.72;;;2.80;;
9384;SDS011;4732;49.340;10.886;2023-02-22T19:52:37;2.73;;;2.30;;
9384;SDS011;4732;49.340;10.886;2023-02-22T19:55:03;3.23;;;2.70;;
9384;SDS011;4732;49.340;10.886;2023-02-22T19:57:36;2.63;;;2.13;;
9384;SDS011;4732;49.340;10.886;2023-02-22T20:00:06;3.10;;;2.53;;
9384;SDS011;4732;49.340;10.886;2023-02-22T20:02:39;3.50;;;2.23;;
9384;SDS011;4732;49.340;10.886;2023-02-22T20:05:09;2.30;;;2.10;;
9384;SDS011;4732;49.340;10.886;2023-02-22T20:07:40;3.70;;;2.33;;
9384;SDS011;4732;49.340;10.886;2023-02-22T20:10:06;3.00;;;2.50;;
9384;SDS011;4732;49.340;10.886;2023-02-22T20:12:32;2.30;;;2.10;;
9384;SDS011;4732;49.340;10.886;2023-02-22T20:14:57;3.40;;;2.23;;
9384;SDS011;4732;49.340;10.886;2023-02-22T20:17:24;2.63;;;2.43;;
9384;SDS011;4732;49.340;10.886;2023-02-22T20:19:50;3.83;;;2.90;;
9384;SDS011;4732;49.340;10.886;2023-02-22T20:22:17;2.80;;;2.53;;
9384;SDS011;4732;49.340;10.886;2023-02-22T20:24:43;2.67;;;2.27;;
9384;SDS011;4732;49.340;10.886;2023-02-22T20:27:10;3.17;;;2.87;;
9384;SDS011;4732;49.340;10.886;2023-02-22T20:29:36;4.63;;;4.10;;
9384;SDS011;4732;49.340;10.886;2023-02-22T20:32:02;5.30;;;3.97;;
9384;SDS011;4732;49.340;10.886;2023-02-22T20:34:29;4.80;;;3.30;;
9384;SDS011;4732;49.340;10.886;2023-02-22T20:36:56;4.03;;;3.30;;
9384;SDS011;4732;49.340;10.886;2023-02-22T20:39:22;4.13;;;3.07;;
9384;SDS011;4732;49.340;10.886;2023-02-22T20:41:48;4.40;;;3.40;;
9384;SDS011;4732;49.340;10.886;2023-02-22T20:44:14;4.73;;;3.70;;
9384;SDS011;4732;49.340;10.886;2023-02-22T20:46:41;3.90;;;3.33;;
9384;SDS011;4732;49.340;10.886;2023-02-22T20:49:07;4.60;;;3.07;;
9384;SDS011;4732;49.340;10.886;2023-02-22T20:51:35;5.10;;;3.40;;
9384;SDS011;4732;49.340;10.886;2023-02-22T20:54:03;4.20;;;3.67;;
9384;SDS011;4732;49.340;10.886;2023-02-22T20:56:29;5.07;;;3.40;;
9384;SDS011;4732;49.340;10.886;2023-02-22T20:58:56;4.23;;;3.30;;
9384;SDS011;4732;49.340;10.886;2023-02-22T21:01:23;6.63;;;4.13;;
9384;SDS011;4732;49.340;10.886;2023-02-22T21:03:49;5.33;;;4.40;;